Time;durP1;ratioP1;P1;durP2;ratioP2;P2;SDS_P1;SDS_P2;PMS_P1;PMS_P2;Temp;Humidity;BMP_temperature;BMP_pressure;BME280_temperature;BME280_humidity;BME280_pressure;Samples;Min_cycle;Max_cycle;Signal;HPM_P1;HPM_P2
2023/07/29 00:04:55;;;;;;;6.20;3.40;;;;;;;17.34;100.00;100249.59;107440;1279;61998;-82
2023/07/29 00:07:20;;;;;;;8.50;3.30;;;;;;;17.30;100.00;100243.86;107535;1280;58992;-82
2023/07/29 00:09:46;;;;;;;8.50;2.80;;;;;;;17.24;100.00;100245.77;107493;1279;59060;-82
2023/07/29 00:12:11;;;;;;;7.40;2.60;;;;;;;17.17;100.00;100245.59;107074;1280;59114;-83
2023/07/29 00:14:37;;;;;;;9.30;2.80;;;;;;;17.14;100.00;100244.42;107524;1280;59129;-83
2023/07/29 00:17:02;;;;;;;8.10;2.70;;;;;;;17.12;100.00;100245.19;107331;1280;59061;-83
2023/07/29 00:19:28;;;;;;;6.50;2.90;;;;;;;17.09;100.00;100247.18;107485;1280;59028;-83
2023/07/29 00:21:53;;;;;;;5.70;2.60;;;;;;;17.00;100.00;100242.88;107243;1282;316444;-83
2023/07/29 00:24:19;;;;;;;6.20;2.50;;;;;;;16.96;100.00;100238.63;107150;1279;59442;-84
2023/07/29 00:30:07;;;;;;;9.80;2.80;;;;;;;16.94;100.00;100242.77;107485;1279;73609;-82
2023/07/29 00:32:32;;;;;;;10.40;3.50;;;;;;;16.93;100.00;100247.86;107073;1280;59152;-83
2023/07/29 00:35:00;;;;;;;8.60;2.90;;;;;;;16.91;100.00;100251.57;107360;1280;59103;-83
2023/07/29 00:37:26;;;;;;;8.60;2.70;;;;;;;16.87;100.00;100250.74;107481;1278;62438;-83
2023/07/29 00:39:51;;;;;;;20.30;2.70;;;;;;;16.86;100.00;100252.94;107528;1278;59149;-83
2023/07/29 00:45:41;;;;;;;6.90;2.50;;;;;;;16.81;100.00;100251.47;107484;1279;73082;-83
2023/07/29 00:48:07;;;;;;;9.00;2.80;;;;;;;16.77;100.00;100248.12;107435;1278;73324;-83
2023/07/29 00:50:32;;;;;;;10.50;3.20;;;;;;;16.74;100.00;100249.42;107481;1280;59278;-83
2023/07/29 00:52:58;;;;;;;7.80;3.40;;;;;;;16.73;100.00;100249.73;107507;1279;59061;-83
2023/07/29 00:55:24;;;;;;;10.50;3.00;;;;;;;16.73;100.00;100252.39;107468;1279;59088;-83
2023/07/29 00:57:54;;;;;;;6.00;2.80;;;;;;;16.71;100.00;100257.02;107505;1279;59003;-82
2023/07/29 01:00:20;;;;;;;7.20;2.90;;;;;;;16.67;100.00;100261.25;107313;1278;59404;-83
2023/07/29 01:02:46;;;;;;;4.90;2.90;;;;;;;16.63;100.00;100261.13;107452;1279;58976;-83
2023/07/29 01:05:16;;;;;;;8.20;3.00;;;;;;;16.58;100.00;100263.42;107527;1279;59419;-83
2023/07/29 01:07:55;;;;;;;7.70;3.20;;;;;;;16.57;100.00;100263.00;107486;1280;75437;-83
2023/07/29 01:10:42;;;;;;;8.30;2.50;;;;;;;16.55;100.00;100274.16;107480;1279;73373;-82
2023/07/29 01:13:23;;;;;;;8.00;2.60;;;;;;;16.50;100.00;100271.94;107316;1282;72378;-83
2023/07/29 01:15:52;;;;;;;7.50;2.60;;;;;;;16.47;100.00;100272.65;107449;1279;62385;-82
2023/07/29 01:18:25;;;;;;;8.10;2.40;;;;;;;16.45;100.00;100277.33;107485;1278;61104;-83
2023/07/29 01:20:53;;;;;;;;;;;;;;;16.42;100.00;100280.44;107082;1279;74394;-82
2023/07/29 01:23:25;;;;;;;5.20;2.60;;;;;;;16.39;100.00;100282.57;107448;1278;73925;-83
2023/07/29 01:25:51;;;;;;;8.10;2.40;;;;;;;16.39;100.00;100283.55;107036;1279;73584;-82
2023/07/29 01:28:16;;;;;;;8.60;3.00;;;;;;;16.37;100.00;100281.52;107345;1279;59080;-82
2023/07/29 01:30:44;;;;;;;6.70;2.70;;;;;;;16.32;100.00;100286.05;107502;1279;58994;-83
2023/07/29 01:33:16;;;;;;;9.70;2.90;;;;;;;16.27;100.00;100286.52;107538;1278;59011;-82
2023/07/29 01:35:41;;;;;;;9.00;2.90;;;;;;;16.25;100.00;100287.72;107045;1280;74342;-82
2023/07/29 01:41:29;;;;;;;10.70;2.50;;;;;;;16.16;100.00;100293.34;107482;1279;60554;-83
2023/07/29 01:43:56;;;;;;;4.80;3.10;;;;;;;16.11;100.00;100290.78;107504;1278;59142;-82
2023/07/29 01:46:22;;;;;;;9.50;3.00;;;;;;;16.10;100.00;100294.95;107507;1279;75611;-82
2023/07/29 01:48:47;;;;;;;9.90;2.70;;;;;;;16.07;100.00;100299.36;107498;1279;59491;-83
2023/07/29 01:51:13;;;;;;;7.80;2.60;;;;;;;16.05;100.00;100300.04;107463;1279;59168;-83
2023/07/29 01:53:38;;;;;;;5.50;3.00;;;;;;;16.02;100.00;100302.12;107503;1279;59070;-82
2023/07/29 01:56:04;;;;;;;12.60;3.30;;;;;;;16.00;100.00;100305.21;107102;1279;60951;-83
2023/07/29 01:58:29;;;;;;;8.40;3.10;;;;;;;15.97;100.00;100304.62;107508;1279;73752;-83
2023/07/29 02:04:16;;;;;;;10.10;3.50;;;;;;;15.85;100.00;100311.16;107493;1278;60475;-83
2023/07/29 02:06:42;;;;;;;10.90;3.30;;;;;;;15.85;100.00;100308.44;107516;1279;58957;-83
2023/07/29 02:09:07;;;;;;;9.30;3.00;;;;;;;15.85;100.00;100310.45;107473;1279;59116;-84
2023/07/29 02:11:33;;;;;;;11.70;3.10;;;;;;;15.85;100.00;100313.59;107114;1280;59098;-83
2023/07/29 02:13:58;;;;;;;8.70;3.20;;;;;;;15.83;100.00;100314.99;107571;1278;59063;-83
2023/07/29 02:16:24;;;;;;;6.30;3.30;;;;;;;15.84;100.00;100313.45;107239;1280;59261;-83
2023/07/29 02:18:50;;;;;;;6.60;3.00;;;;;;;15.87;100.00;100315.41;107365;1280;59037;-83
2023/07/29 02:21:16;;;;;;;9.90;3.20;;;;;;;15.88;100.00;100318.98;107347;1280;59415;-82
2023/07/29 02:23:41;;;;;;;9.30;3.60;;;;;;;15.90;100.00;100319.80;107472;1279;59041;-82
2023/07/29 02:26:07;;;;;;;6.10;2.90;;;;;;;15.92;100.00;100315.48;107510;1279;59074;-82
2023/07/29 02:28:32;;;;;;;8.70;3.30;;;;;;;15.92;100.00;100319.98;107527;1279;59062;-82
2023/07/29 02:31:17;;;;;;;7.10;3.40;;;;;;;15.93;100.00;100316.98;107368;1278;59048;-82
2023/07/29 02:33:44;;;;;;;8.00;3.40;;;;;;;15.96;100.00;100318.28;107475;1279;73452;-83
2023/07/29 02:36:11;;;;;;;9.60;3.50;;;;;;;15.99;100.00;100318.76;107478;1279;59045;-82
2023/07/29 02:38:36;;;;;;;9.10;3.30;;;;;;;16.04;100.00;100318.61;107485;1279;59882;-82
2023/07/29 02:41:02;;;;;;;9.00;3.00;;;;;;;16.07;100.00;100322.01;107523;1278;59113;-82
2023/07/29 02:43:27;;;;;;;6.70;3.10;;;;;;;16.11;100.00;100326.40;107483;1279;59103;-83
2023/07/29 02:45:53;;;;;;;16.10;3.20;;;;;;;16.18;100.00;100323.70;107482;1279;59117;-83
2023/07/29 02:48:18;;;;;;;8.00;3.20;;;;;;;16.24;100.00;100323.34;107517;1279;59023;-82
2023/07/29 02:50:44;;;;;;;8.40;3.10;;;;;;;16.29;100.00;100326.55;107351;1279;59206;-82
2023/07/29 02:53:09;;;;;;;6.10;2.80;;;;;;;16.34;100.00;100329.23;107514;1279;59064;-82
2023/07/29 02:55:35;;;;;;;9.40;3.00;;;;;;;16.42;100.00;100331.58;107472;1279;59053;-83
2023/07/29 02:58:00;;;;;;;5.40;2.80;;;;;;;16.49;100.00;100338.34;107445;1279;59260;-83
2023/07/29 03:00:26;;;;;;;6.40;3.20;;;;;;;16.56;100.00;100341.44;107204;1279;59066;-83
2023/07/29 03:02:51;;;;;;;7.50;3.00;;;;;;;16.66;100.00;100341.91;107526;1278;59074;-83
2023/07/29 03:05:17;;;;;;;11.50;3.30;;;;;;;16.75;100.00;100343.41;107494;1278;59035;-83
2023/07/29 03:07:42;;;;;;;5.00;2.70;;;;;;;16.82;100.00;100341.70;107513;1279;58967;-82
2023/07/29 03:13:29;;;;;;;8.60;3.40;;;;;;;17.00;100.00;100348.67;107475;1278;74386;-83
2023/07/29 03:16:05;;;;;;;7.20;2.70;;;;;;;17.05;100.00;100346.21;107485;1279;59016;-82
2023/07/29 03:18:30;;;;;;;6.80;2.90;;;;;;;17.15;100.00;100344.73;107071;1278;72463;-83
2023/07/29 03:24:17;;;;;;;13.70;3.30;;;;;;;17.51;100.00;100342.39;107472;1279;59430;-83
2023/07/29 03:26:43;;;;;;;4.60;2.50;;;;;;;17.82;100.00;100339.14;107515;1279;59059;-83
2023/07/29 03:29:08;;;;;;;5.00;2.40;;;;;;;18.39;100.00;100340.14;107538;1279;59097;-83
2023/07/29 03:31:34;;;;;;;8.70;2.20;;;;;;;18.98;100.00;100334.80;107501;1278;59072;-83
2023/07/29 03:33:59;;;;;;;19.30;3.10;;;;;;;19.31;100.00;100336.22;107545;1279;58981;-83
2023/07/29 03:36:25;;;;;;;8.30;2.60;;;;;;;19.45;100.00;100333.69;107515;1279;59035;-83
2023/07/29 03:38:50;;;;;;;7.20;2.30;;;;;;;19.53;100.00;100329.14;107478;1278;59474;-83
2023/07/29 03:41:16;;;;;;;3.50;2.30;;;;;;;19.69;100.00;100332.05;107447;1278;59102;-83
2023/07/29 03:43:41;;;;;;;7.70;2.50;;;;;;;19.91;100.00;100333.84;107453;1279;59202;-83
2023/07/29 03:46:07;;;;;;;6.30;2.50;;;;;;;20.27;100.00;100328.21;107520;1278;59027;-83
2023/07/29 03:51:54;;;;;;;8.40;2.20;;;;;;;22.02;100.00;100328.66;107475;1278;71339;-84
2023/07/29 03:54:19;;;;;;;8.60;2.40;;;;;;;22.61;100.00;100327.52;107505;1279;59074;-84
2023/07/29 04:00:07;;;;;;;6.50;2.30;;;;;;;24.09;100.00;100331.39;107466;1278;73664;-84
2023/07/29 04:02:32;;;;;;;7.40;2.10;;;;;;;24.60;100.00;100330.73;107123;1279;59436;-84
2023/07/29 04:04:58;;;;;;;5.80;2.30;;;;;;;25.04;100.00;100331.55;107341;1280;59093;-83
2023/07/29 04:07:23;;;;;;;7.70;2.10;;;;;;;25.47;100.00;100331.60;107483;1279;59147;-84
2023/07/29 04:09:49;;;;;;;5.90;2.40;;;;;;;25.82;100.00;100327.30;107547;1279;59581;-84
2023/07/29 04:12:15;;;;;;;6.30;2.10;;;;;;;26.21;100.00;100327.76;107082;1280;71987;-83
2023/07/29 04:14:40;;;;;;;5.90;1.90;;;;;;;26.81;100.00;100325.33;107494;1279;59044;-84
2023/07/29 04:17:07;;;;;;;10.30;2.20;;;;;;;27.19;100.00;100327.20;107455;1278;59075;-84
2023/07/29 04:22:54;;;;;;;9.10;2.50;;;;;;;28.13;95.63;100331.30;107513;1279;73233;-84
2023/07/29 04:25:19;;;;;;;5.60;1.90;;;;;;;28.54;94.65;100330.11;107506;1279;59011;-84
2023/07/29 04:27:45;;;;;;;5.30;2.40;;;;;;;28.88;86.72;100329.63;107475;1279;59141;-84
2023/07/29 04:30:11;;;;;;;3.70;2.10;;;;;;;29.00;83.71;100330.71;107486;1279;58978;-84
2023/07/29 04:32:36;;;;;;;5.20;2.30;;;;;;;29.39;82.40;100329.71;107551;1279;59061;-84
2023/07/29 04:35:02;;;;;;;7.20;2.40;;;;;;;29.80;79.96;100329.29;107491;1279;74404;-84
2023/07/29 04:37:27;;;;;;;6.20;2.40;;;;;;;30.38;82.51;100333.82;107502;1279;59533;-84
2023/07/29 04:39:53;;;;;;;4.90;2.20;;;;;;;30.92;76.37;100329.19;107099;1278;59074;-83
2023/07/29 04:42:18;;;;;;;7.00;2.10;;;;;;;31.05;70.36;100329.91;107526;1278;59146;-83
2023/07/29 04:48:05;;;;;;;8.60;2.30;;;;;;;31.61;66.06;100333.94;107450;1279;71284;-84
2023/07/29 04:50:31;;;;;;;3.80;2.10;;;;;;;31.95;66.07;100338.04;107459;1278;59297;-84
2023/07/29 04:52:56;;;;;;;6.60;2.00;;;;;;;32.13;62.22;100336.52;107131;1279;59064;-84
2023/07/29 04:55:22;;;;;;;5.00;2.30;;;;;;;32.49;62.37;100341.34;107536;1278;59180;-84
2023/07/29 04:57:47;;;;;;;5.10;2.20;;;;;;;32.83;61.21;100344.61;107170;1280;59137;-82
2023/07/29 05:00:13;;;;;;;8.10;2.40;;;;;;;33.22;60.03;100351.03;107485;1278;59096;-84
2023/07/29 05:02:39;;;;;;;5.00;2.20;;;;;;;33.27;56.38;100349.29;107521;1278;58935;-85
2023/07/29 05:05:04;;;;;;;6.80;2.40;;;;;;;33.17;55.48;100352.80;107093;1279;59052;-85
2023/07/29 05:07:30;;;;;;;4.60;2.20;;;;;;;33.24;54.77;100358.67;107022;1280;59169;-84
2023/07/29 05:09:55;;;;;;;4.70;2.10;;;;;;;33.54;54.78;100355.52;107519;1278;59143;-82
2023/07/29 05:12:21;;;;;;;8.00;2.30;;;;;;;33.85;53.73;100353.91;107534;1279;58978;-82
2023/07/29 05:14:46;;;;;;;3.60;2.40;;;;;;;34.00;51.69;100355.80;107511;1279;59106;-82
2023/07/29 05:17:12;;;;;;;5.70;2.60;;;;;;;34.03;50.97;100355.77;107120;1279;59489;-83
2023/07/29 05:19:37;;;;;;;4.40;2.00;;;;;;;34.06;50.84;100359.31;107469;1278;59156;-83
2023/07/29 05:22:03;;;;;;;6.20;2.10;;;;;;;34.30;50.24;100358.41;107515;1279;59101;-83
2023/07/29 05:24:28;;;;;;;4.30;2.30;;;;;;;34.64;50.06;100359.27;107541;1279;59037;-82
2023/07/29 05:26:54;;;;;;;7.10;2.80;;;;;;;35.11;49.39;100356.61;107477;1278;59372;-83
2023/07/29 05:29:19;;;;;;;4.60;2.00;;;;;;;35.37;47.95;100359.55;107470;1278;59953;-82
2023/07/29 05:31:45;;;;;;;4.80;2.20;;;;;;;35.69;48.52;100355.52;107145;1278;59036;-83
2023/07/29 05:34:10;;;;;;;3.60;2.10;;;;;;;35.91;46.01;100360.98;107506;1279;59420;-83
2023/07/29 05:36:36;;;;;;;3.20;2.00;;;;;;;35.95;46.00;100360.80;107549;1279;59168;-84
2023/07/29 05:39:01;;;;;;;4.10;2.20;;;;;;;36.15;45.86;100361.99;107506;1279;59286;-83
2023/07/29 05:41:28;;;;;;;6.00;2.20;;;;;;;36.49;46.02;100361.64;107488;1279;58972;-83
2023/07/29 05:43:54;;;;;;;5.00;2.10;;;;;;;36.78;44.96;100364.92;107032;1279;59197;-82
2023/07/29 05:46:19;;;;;;;3.60;2.20;;;;;;;36.75;44.27;100366.91;107555;1278;59063;-82
2023/07/29 05:52:07;;;;;;;3.70;2.60;;;;;;;36.75;43.10;100366.91;107479;1278;73191;-84
2023/07/29 05:54:32;;;;;;;5.20;2.40;;;;;;;36.97;42.32;100370.69;107529;1278;59305;-83
2023/07/29 05:56:58;;;;;;;3.10;2.20;;;;;;;37.35;42.08;100375.16;107534;1279;59016;-84
2023/07/29 05:59:23;;;;;;;3.30;2.30;;;;;;;37.57;41.59;100379.14;107579;1279;59089;-83
2023/07/29 06:01:49;;;;;;;6.40;2.10;;;;;;;37.76;40.80;100378.63;107562;1279;59111;-83
2023/07/29 06:04:14;;;;;;;5.40;2.40;;;;;;;37.92;40.88;100384.27;107500;1279;59849;-84
2023/07/29 06:06:40;;;;;;;4.90;2.50;;;;;;;38.14;40.14;100386.17;107560;1278;59003;-84
2023/07/29 06:09:05;;;;;;;4.10;2.30;;;;;;;38.17;38.88;100388.23;107550;1279;59077;-85
2023/07/29 06:11:31;;;;;;;6.90;2.80;;;;;;;38.23;39.00;100388.91;107562;1279;59060;-84
2023/07/29 06:17:18;;;;;;;4.50;2.80;;;;;;;37.85;37.50;100389.77;107549;1278;58994;-85
2023/07/29 06:19:43;;;;;;;5.00;2.70;;;;;;;37.77;37.89;100391.13;107363;1280;59212;-85
2023/07/29 06:22:10;;;;;;;5.10;2.50;;;;;;;38.08;38.13;100384.45;107506;1278;59087;-85
2023/07/29 06:24:35;;;;;;;5.00;2.60;;;;;;;38.41;37.36;100385.32;107327;1280;59051;-85
2023/07/29 06:27:01;;;;;;;3.60;2.30;;;;;;;38.49;36.71;100385.86;107153;1278;59067;-85
2023/07/29 06:29:26;;;;;;;5.00;2.80;;;;;;;38.47;36.29;100389.46;107514;1279;59061;-85
2023/07/29 06:31:52;;;;;;;4.70;2.40;;;;;;;38.47;35.74;100384.87;107478;1279;74343;-86
2023/07/29 06:34:18;;;;;;;5.60;2.80;;;;;;;38.32;34.82;100391.90;107479;1278;59520;-85
2023/07/29 06:40:05;;;;;;;6.10;2.50;;;;;;;38.28;35.34;100389.23;107520;1279;58998;-83
2023/07/29 06:42:30;;;;;;;4.90;2.90;;;;;;;38.39;35.38;100385.86;107111;1279;59304;-86
2023/07/29 06:44:56;;;;;;;11.00;2.30;;;;;;;38.73;36.35;100378.14;107518;1279;59003;-83
2023/07/29 06:47:21;;;;;;;7.40;2.50;;;;;;;39.18;35.61;100382.08;107479;1278;59047;-83
2023/07/29 06:49:47;;;;;;;6.60;2.50;;;;;;;39.45;34.88;100381.57;107421;1279;59301;-83
2023/07/29 06:52:12;;;;;;;2.90;2.20;;;;;;;39.66;33.78;100379.83;107548;1279;59026;-83
2023/07/29 06:54:38;;;;;;;5.40;2.50;;;;;;;39.64;33.52;100382.65;107063;1285;59162;-84
2023/07/29 06:57:04;;;;;;;6.20;2.30;;;;;;;39.87;33.81;100386.71;107492;1278;59101;-84
2023/07/29 06:59:29;;;;;;;2.90;2.30;;;;;;;40.18;32.22;100384.29;107500;1279;59435;-84
2023/07/29 07:01:55;;;;;;;5.10;2.30;;;;;;;40.15;32.41;100379.84;107373;1278;59181;-83
2023/07/29 07:04:20;;;;;;;8.50;2.60;;;;;;;40.12;31.69;100378.36;107569;1279;59020;-84
2023/07/29 07:06:45;;;;;;;2.30;2.10;;;;;;;40.03;31.92;100384.88;107510;1278;59061;-84
2023/07/29 07:09:11;;;;;;;3.60;2.30;;;;;;;39.93;31.82;100387.98;106910;1285;59415;-84
2023/07/29 07:11:37;;;;;;;2.60;2.10;;;;;;;40.05;32.83;100383.69;106964;1284;59118;-84
2023/07/29 07:14:02;;;;;;;6.70;2.60;;;;;;;40.11;31.85;100387.05;106936;1284;59200;-84
2023/07/29 07:16:30;;;;;;;3.30;2.20;;;;;;;40.27;32.10;100382.98;106992;1284;59138;-85
2023/07/29 07:18:56;;;;;;;3.20;2.30;;;;;;;40.51;31.39;100381.11;106796;1283;60133;-85
2023/07/29 07:21:21;;;;;;;2.50;2.10;;;;;;;40.52;32.19;100388.83;106927;1283;59001;-84
2023/07/29 07:23:49;;;;;;;9.50;2.50;;;;;;;40.39;31.30;100388.69;106705;1283;59075;-85
2023/07/29 07:26:15;;;;;;;4.50;2.10;;;;;;;40.45;31.22;100386.39;106417;1284;73482;-84
2023/07/29 07:28:40;;;;;;;5.40;2.40;;;;;;;40.71;32.82;100385.38;106956;1284;59159;-84
2023/07/29 07:31:06;;;;;;;3.70;2.40;;;;;;;41.43;32.57;100387.61;106953;1283;59062;-83
2023/07/29 07:33:31;;;;;;;9.70;2.60;;;;;;;41.51;31.33;100383.34;106949;1284;59025;-84
2023/07/29 07:35:57;;;;;;;4.20;2.20;;;;;;;41.23;30.32;100387.38;107014;1284;59319;-82
2023/07/29 07:38:22;;;;;;;5.30;2.40;;;;;;;40.95;30.28;100393.20;106927;1284;59141;-86
2023/07/29 07:44:10;;;;;;;2.30;2.10;;;;;;;40.51;29.57;100391.16;107502;1278;60198;-85
2023/07/29 07:46:36;;;;;;;3.60;2.10;;;;;;;40.36;30.09;100388.19;107356;1279;59021;-85
2023/07/29 07:49:02;;;;;;;6.60;2.50;;;;;;;40.57;30.80;100386.77;107529;1279;58959;-86
2023/07/29 07:51:27;;;;;;;3.00;2.30;;;;;;;40.90;30.98;100383.08;107481;1278;59277;-84
